TimeCST,TemperatureF,Dew PointF,Humidity,Sea Level PressureIn,VisibilityMPH,Wind Direction,Wind SpeedMPH,Gust SpeedMPH,PrecipitationIn,Events,Conditions,WindDirDegrees,DateUTC
6:00 AM,80,72,71,29.86,12,East,3.5,,,,Overcast,90,2013-07-10 12:00:00
6:00 AM,78.8,71.6,78,29.85,6.2,East,3.5,-,N/A,,Mostly Cloudy,90,2013-07-10 12:00:00
7:00 AM,80.6,73.4,79,29.85,6.2,SSW,3.5,-,N/A,,Mostly Cloudy,210,2013-07-10 13:00:00
8:00 AM,82.4,73.4,74,29.87,6.2,East,6.9,-,N/A,,Mostly Cloudy,90,2013-07-10 14:00:00
9:00 AM,85,73,61,29.90,12,NE,8.1,,,,Overcast,50,2013-07-10 15:00:00
9:00 AM,84.2,73.4,70,29.88,6.2,NE,8.1,-,N/A,,Mostly Cloudy,50,2013-07-10 15:00:00
10:00 AM,86.0,73.4,66,29.88,6.2,ENE,11.5,-,N/A,,Mostly Cloudy,70,2013-07-10 16:00:00
11:00 AM,89.6,73.4,59,29.87,6.2,East,9.2,-,N/A,,Mostly Cloudy,80,2013-07-10 17:00:00
12:00 PM,91,72,44,29.87,12,NE,8.1,,,,Overcast,40,2013-07-10 18:00:00
12:00 PM,91.4,71.6,52,29.85,6.2,NE,8.1,-,N/A,,Mostly Cloudy,40,2013-07-10 18:00:00
1:00 PM,87.8,73.4,62,29.84,6.2,NE,11.5,-,N/A,,Mostly Cloudy,40,2013-07-10 19:00:00
2:00 PM,91,71,42,29.81,12,NE,12.7,,,,Overcast,50,2013-07-10 20:00:00
2:00 PM,87.8,71.6,58,29.82,6.2,ENE,10.4,-,N/A,,Mostly Cloudy,60,2013-07-10 20:00:00
3:00 PM,91,71,42,29.81,12,NE,12.7,,,,Overcast,50,2013-07-10 21:00:00
3:00 PM,91.4,71.6,52,29.79,6.2,NE,12.7,-,N/A,,Mostly Cloudy,50,2013-07-10 21:00:00
4:00 PM,91.4,69.8,49,29.79,6.2,ENE,9.2,-,N/A,,Mostly Cloudy,70,2013-07-10 22:00:00
5:00 PM,89.6,69.8,52,29.79,6.2,East,6.9,-,N/A,,Mostly Cloudy,80,2013-07-10 23:00:00
6:00 PM,86,73,57,29.82,12,South,4.6,,,,Overcast,170,2013-07-11 00:00:00
6:00 PM,86.0,73.4,66,29.81,6.2,South,4.6,-,N/A,,Mostly Cloudy,170,2013-07-11 00:00:00
7:00 PM,84.2,73.4,70,29.83,6.2,South,2.3,-,N/A,,Scattered Clouds,170,2013-07-11 01:00:00
8:00 PM,80.6,75.2,84,29.85,6.2,SSE,4.6,-,N/A,,Scattered Clouds,160,2013-07-11 02:00:00